< Typhoon 197413 1974 Season Typhoon 197415 >
Typhoon 197414 (MARY)
General InformationTrack Information on Google Maps || Disaster Info.ResourceGoogle EarthGE AnimationAtom FeedGeoJSON
Detalied Best Track (Time Zone = UTC)
Year Month Day Hour Lat. Long. Pressure (hPa) Wind (kt) Class Image Chart
1974 8 11 00 16.0 157.0 1000 0 2 -- Chart
1974 8 11 06 17.0 156.0 994 0 9 -- Chart
1974 8 11 12 17.4 155.0 994 0 9 -- Chart
1974 8 11 18 17.5 154.0 994 0 9 -- Chart
1974 8 12 00 17.8 153.0 992 0 9 -- Chart
1974 8 12 06 18.5 152.0 990 0 9 -- Chart
1974 8 12 12 19.1 151.0 990 0 9 -- Chart
1974 8 12 18 19.7 150.0 990 0 9 -- Chart
1974 8 13 00 20.4 149.3 990 0 9 -- Chart
1974 8 13 06 20.9 148.6 985 0 9 -- Chart
1974 8 13 12 21.9 147.6 980 0 9 -- Chart
1974 8 13 18 22.7 146.3 980 0 9 -- Chart
1974 8 14 00 23.7 145.2 975 0 9 -- Chart
1974 8 14 06 24.5 144.3 975 0 9 -- Chart
1974 8 14 12 25.2 143.5 975 0 9 -- Chart
1974 8 14 18 26.0 142.8 975 0 9 -- Chart
1974 8 15 00 26.4 142.1 975 0 9 -- Chart
1974 8 15 06 26.7 141.5 970 0 9 -- Chart
1974 8 15 12 26.8 140.3 970 0 9 -- Chart
1974 8 15 18 27.0 139.3 975 0 9 -- Chart
1974 8 16 00 27.0 138.4 975 0 9 -- Chart
1974 8 16 06 27.2 137.9 975 0 9 -- Chart
1974 8 16 12 27.3 136.5 980 0 9 -- Chart
1974 8 16 18 27.6 134.9 985 0 9 -- Chart
1974 8 17 00 28.0 134.0 980 0 9 -- Chart
1974 8 17 06 28.4 133.1 975 0 9 -- Chart
1974 8 17 12 28.6 132.1 970 0 9 -- Chart
1974 8 17 18 28.5 130.9 970 0 9 -- Chart
1974 8 18 00 28.5 130.3 975 0 9 -- Chart
1974 8 18 06 29.0 128.4 975 0 9 -- Chart
1974 8 18 12 28.7 127.4 975 0 9 -- Chart
1974 8 18 18 28.6 125.6 975 0 9 -- Chart
1974 8 19 00 28.6 124.5 975 0 9 -- Chart
1974 8 19 06 28.9 123.5 975 0 9 -- Chart
1974 8 19 12 29.0 122.6 975 0 9 -- Chart
1974 8 19 18 28.9 121.1 975 0 9 -- Chart
1974 8 20 00 29.0 120.8 984 0 9 -- Chart
1974 8 20 06 29.0 120.3 990 0 9 -- Chart
1974 8 20 12 28.8 120.0 992 0 2 -- Chart
1974 8 20 18 28.4 119.6 992 0 2 -- Chart
1974 8 21 00 28.0 119.5 993 0 2 -- Chart
1974 8 21 06 27.5 119.8 992 0 2 -- Chart
1974 8 21 12 27.6 120.5 993 0 2 -- Chart
1974 8 21 18 28.0 121.0 994 0 2 -- Chart
1974 8 22 00 28.7 121.4 996 0 2 -- Chart
1974 8 22 06 29.0 121.8 994 0 2 -- Chart
1974 8 22 12 29.0 122.6 996 0 2 -- Chart
1974 8 22 18 28.9 123.5 998 0 2 -- Chart
1974 8 23 00 28.5 124.5 998 0 2 -- Chart
1974 8 23 06 28.0 125.0 994 0 2 -- Chart
1974 8 23 12 27.6 125.7 994 0 2 -- Chart
1974 8 23 18 27.0 126.6 990 0 2 -- Chart
1974 8 24 00 26.8 127.5 988 0 9 -- Chart
1974 8 24 06 26.3 128.7 980 0 9 -- Chart
1974 8 24 12 26.0 130.1 970 0 9 -- Chart
1974 8 24 18 26.2 131.4 965 0 9 -- Chart
1974 8 25 00 26.8 133.0 965 0 9 -- Chart
1974 8 25 06 28.2 134.5 970 0 9 -- Chart
1974 8 25 12 29.9 135.8 970 0 9 -- Chart
1974 8 25 18 32.1 137.0 975 0 9 -- Chart
1974 8 26 00 34.5 137.7 975 0 9 -- Chart
1974 8 26 06 37.5 139.5 995 0 9 -- Chart
1974 8 26 12 41.0 144.0 1002 0 2 -- Chart
1974 8 26 18 42.8 147.0 1004 0 2 -- Chart
1974 8 27 00 44.0 149.0 1012 0 2 -- Chart
Japan Meteorological Agency Best Track Data | Correction Date : 1989-06-01
< Typhoon 197413 1974 Season Typhoon 197415 >

Help